createdAt,value
2022-11-27T00:00:41.976Z,42.91
2022-11-27T00:01:41.971Z,43.98
2022-11-27T00:02:42.029Z,49.13
2022-11-27T00:03:42.017Z,47.34
2022-11-27T00:04:41.997Z,42.28
2022-11-27T00:05:41.938Z,42.80
2022-11-27T00:06:41.930Z,44.18
2022-11-27T00:07:42.003Z,48.09
2022-11-27T00:08:41.918Z,45.66
2022-11-27T00:09:42.209Z,48.66
2022-11-27T00:10:41.899Z,44.40
2022-11-27T00:11:41.894Z,49.37
2022-11-27T00:12:41.886Z,47.36
2022-11-27T00:13:41.876Z,43.60
2022-11-27T00:14:41.894Z,43.05
2022-11-27T00:15:41.893Z,43.43
2022-11-27T00:16:41.847Z,51.11
2022-11-27T00:17:41.857Z,43.44
2022-11-27T00:18:41.837Z,45.83
2022-11-27T00:19:42.117Z,48.19
2022-11-27T00:20:41.821Z,40.60
2022-11-27T00:21:41.815Z,46.01
2022-11-27T00:22:41.821Z,50.41
2022-11-27T00:23:41.810Z,43.53
2022-11-27T00:24:42.103Z,43.39
2022-11-27T00:25:41.791Z,47.85
2022-11-27T00:26:41.781Z,46.56
2022-11-27T00:27:41.779Z,47.18
2022-11-27T00:28:41.769Z,48.02
2022-11-27T00:29:41.788Z,40.71
2022-11-27T00:31:16.098Z,44.69
2022-11-27T00:31:41.813Z,48.97
2022-11-27T00:32:41.752Z,40.40
2022-11-27T00:33:41.748Z,40.30
2022-11-27T00:34:42.017Z,40.32
2022-11-27T00:35:41.730Z,43.39
2022-11-27T00:36:46.614Z,47.19
2022-11-27T00:37:43.717Z,41.10
2022-11-27T00:38:41.710Z,47.75
2022-11-27T00:39:41.716Z,47.16
2022-11-27T00:40:41.681Z,45.14
2022-11-27T00:41:41.668Z,43.74
2022-11-27T00:42:42.659Z,57.20
2022-11-27T00:43:45.134Z,42.70
2022-11-27T00:44:42.674Z,43.07
2022-11-27T00:45:41.643Z,40.25
2022-11-27T00:46:41.735Z,44.06
2022-11-27T00:47:41.629Z,53.31
2022-11-27T00:48:41.634Z,42.12
2022-11-27T00:49:41.643Z,40.46
2022-11-27T00:50:41.607Z,42.95
2022-11-27T00:51:41.601Z,40.14
2022-11-27T00:52:41.601Z,43.32
2022-11-27T00:53:41.584Z,41.07
2022-11-27T00:54:41.877Z,43.63
2022-11-27T00:55:41.570Z,40.63
2022-11-27T00:56:41.559Z,50.93
2022-11-27T00:57:41.549Z,40.59
2022-11-27T00:58:41.548Z,41.18
2022-11-27T00:59:41.574Z,42.64
2022-11-27T01:00:41.555Z,45.27
2022-11-27T01:01:41.574Z,44.61
2022-11-27T01:02:41.683Z,45.73
2022-11-27T01:03:41.514Z,48.68
2022-11-27T01:04:41.829Z,44.35
2022-11-27T01:05:41.501Z,44.75
2022-11-27T01:06:41.480Z,42.57
2022-11-27T01:07:41.525Z,46.92
2022-11-27T01:08:41.474Z,40.57
2022-11-27T01:09:41.464Z,46.33
2022-11-27T01:10:41.488Z,42.48
2022-11-27T01:11:41.451Z,43.16
2022-11-27T01:12:41.445Z,39.98
2022-11-27T01:13:41.428Z,42.60
2022-11-27T01:14:41.710Z,45.76
2022-11-27T01:15:41.474Z,42.43
2022-11-27T01:16:43.422Z,40.83
2022-11-27T01:17:42.404Z,40.19
2022-11-27T01:18:41.394Z,41.13
2022-11-27T01:19:41.400Z,41.42
2022-11-27T01:20:41.411Z,46.59
2022-11-27T01:21:41.383Z,43.52
2022-11-27T01:22:41.388Z,44.53
2022-11-27T01:23:41.372Z,39.90
2022-11-27T01:24:41.633Z,40.70
2022-11-27T01:25:41.402Z,51.25
2022-11-27T01:26:41.344Z,45.32
2022-11-27T01:27:41.337Z,45.81
2022-11-27T01:28:41.330Z,39.81
2022-11-27T01:29:41.318Z,46.36
2022-11-27T01:30:41.347Z,42.87
2022-11-27T01:31:41.372Z,39.77
2022-11-27T01:32:41.298Z,43.22
2022-11-27T01:33:41.285Z,44.13
2022-11-27T01:34:41.638Z,46.93
2022-11-27T01:35:41.310Z,44.61
2022-11-27T01:36:41.267Z,43.35
2022-11-27T01:37:41.272Z,42.61
2022-11-27T01:38:41.272Z,45.85
2022-11-27T01:39:41.250Z,40.48
2022-11-27T01:40:41.269Z,39.70
2022-11-27T01:41:41.249Z,39.63
2022-11-27T01:42:41.224Z,43.12
2022-11-27T01:43:41.228Z,39.96
2022-11-27T01:44:41.565Z,42.32
2022-11-27T01:45:41.251Z,39.96
2022-11-27T01:46:41.289Z,43.84
2022-11-27T01:47:41.186Z,40.41
2022-11-27T01:48:41.184Z,46.82
2022-11-27T01:49:41.174Z,40.13
2022-11-27T01:50:41.214Z,44.62
2022-11-27T01:51:41.170Z,43.64
2022-11-27T01:52:41.155Z,41.44
2022-11-27T01:53:41.152Z,43.46
2022-11-27T01:54:41.281Z,53.49
2022-11-27T01:55:41.166Z,40.73
2022-11-27T01:56:41.121Z,54.67
2022-11-27T01:57:41.202Z,55.72
2022-11-27T01:58:41.128Z,57.93
2022-11-27T01:59:41.092Z,58.32
2022-11-27T02:00:41.127Z,58.70
2022-11-27T02:01:41.112Z,59.03
2022-11-27T02:02:41.146Z,59.25
2022-11-27T02:03:41.059Z,59.08
2022-11-27T02:04:41.292Z,58.71
2022-11-27T02:05:41.073Z,58.65
2022-11-27T02:06:41.048Z,58.91
2022-11-27T02:07:41.139Z,58.69
2022-11-27T02:08:41.015Z,58.99
2022-11-27T02:09:41.049Z,58.20
2022-11-27T02:10:41.040Z,58.15
2022-11-27T02:11:41.027Z,58.28
2022-11-27T02:12:40.983Z,57.96
2022-11-27T02:13:42.003Z,46.39
2022-11-27T02:14:41.348Z,36.90
2022-11-27T02:15:41.023Z,42.85
2022-11-27T02:16:41.012Z,41.38
2022-11-27T02:17:40.973Z,52.10
2022-11-27T02:18:40.983Z,41.98
2022-11-27T02:19:40.955Z,39.77
2022-11-27T02:20:40.975Z,49.01
2022-11-27T02:21:40.931Z,39.74
2022-11-27T02:22:41.045Z,46.35
2022-11-27T02:23:40.904Z,45.24
2022-11-27T02:24:41.087Z,40.16
2022-11-27T02:25:40.922Z,48.18
2022-11-27T02:26:40.901Z,45.09
2022-11-27T02:27:40.877Z,44.93
2022-11-27T02:28:40.880Z,40.58
2022-11-27T02:29:40.875Z,53.08
2022-11-27T02:30:40.897Z,47.33
2022-11-27T02:31:40.923Z,44.45
2022-11-27T02:32:40.856Z,41.49
2022-11-27T02:33:40.826Z,40.89
2022-11-27T02:34:41.077Z,40.87
2022-11-27T02:35:40.867Z,44.72
2022-11-27T02:36:40.843Z,42.85
2022-11-27T02:37:40.800Z,45.50
2022-11-27T02:38:40.801Z,44.72
2022-11-27T02:39:40.802Z,50.86
2022-11-27T02:40:40.777Z,42.31
2022-11-27T02:41:40.828Z,44.42
2022-11-27T02:42:40.841Z,46.18
2022-11-27T02:43:40.760Z,41.13
2022-11-27T02:44:40.973Z,49.41
2022-11-27T02:45:40.748Z,42.67
2022-11-27T02:46:40.853Z,44.26
2022-11-27T02:47:40.741Z,48.21
2022-11-27T02:48:40.708Z,41.08
2022-11-27T02:49:41.714Z,43.25
2022-11-27T02:50:40.695Z,44.24
2022-11-27T02:51:40.723Z,41.37
2022-11-27T02:52:40.692Z,41.29
2022-11-27T02:53:40.697Z,40.97
2022-11-27T02:54:40.843Z,43.85
2022-11-27T02:55:40.671Z,41.90
2022-11-27T02:56:40.687Z,59.23
2022-11-27T02:57:40.659Z,41.78
2022-11-27T02:58:40.711Z,45.11
2022-11-27T02:59:40.638Z,41.77
2022-11-27T03:00:40.624Z,48.50
2022-11-27T03:01:40.673Z,48.28
2022-11-27T03:02:40.680Z,41.01
2022-11-27T03:03:40.614Z,51.65
2022-11-27T03:04:40.801Z,41.84
2022-11-27T03:05:40.649Z,42.83
2022-11-27T03:06:40.595Z,43.74
2022-11-27T03:07:40.574Z,43.94
2022-11-27T03:08:40.554Z,42.14
2022-11-27T03:09:40.544Z,46.03
2022-11-27T03:10:40.545Z,40.80
2022-11-27T03:11:40.562Z,43.63
2022-11-27T03:12:40.530Z,43.62
2022-11-27T03:13:40.534Z,44.73
2022-11-27T03:14:40.904Z,41.94
2022-11-27T03:15:40.540Z,48.75
2022-11-27T03:16:40.521Z,43.76
2022-11-27T03:17:40.496Z,46.75
2022-11-27T03:18:40.480Z,42.48
2022-11-27T03:19:40.470Z,54.48
2022-11-27T03:20:40.474Z,40.89
2022-11-27T03:21:40.479Z,40.55
2022-11-27T03:22:40.444Z,42.47
2022-11-27T03:23:40.444Z,45.85
2022-11-27T03:24:40.915Z,40.46
2022-11-27T03:25:40.422Z,40.49
2022-11-27T03:26:40.447Z,43.91
2022-11-27T03:27:40.417Z,43.88
2022-11-27T03:28:40.402Z,45.69
2022-11-27T03:29:40.400Z,43.40
2022-11-27T03:30:40.465Z,40.59
2022-11-27T03:31:40.443Z,46.35
2022-11-27T03:32:40.375Z,43.44
2022-11-27T03:33:40.366Z,40.50
2022-11-27T03:34:40.664Z,40.41
2022-11-27T03:35:40.370Z,43.31
2022-11-27T03:36:40.387Z,40.36
2022-11-27T03:37:40.337Z,42.83
2022-11-27T03:38:40.328Z,49.24
2022-11-27T03:39:40.323Z,47.48
2022-11-27T03:40:40.313Z,40.51
2022-11-27T03:41:40.336Z,42.60
2022-11-27T03:42:40.295Z,40.41
2022-11-27T03:43:40.295Z,40.32
2022-11-27T03:44:40.532Z,40.44
2022-11-27T03:45:40.323Z,45.10
2022-11-27T03:46:40.433Z,40.22
2022-11-27T03:47:40.315Z,40.07
2022-11-27T03:48:40.252Z,42.98
2022-11-27T03:49:40.239Z,53.79
2022-11-27T03:50:40.235Z,46.70
2022-11-27T03:51:40.240Z,47.59
2022-11-27T03:52:40.258Z,56.56
2022-11-27T03:53:40.226Z,55.74
2022-11-27T03:54:40.463Z,58.64
2022-11-27T03:55:40.211Z,58.98
2022-11-27T03:56:40.188Z,59.46
2022-11-27T03:57:40.211Z,59.52
2022-11-27T03:58:40.177Z,59.41
2022-11-27T03:59:40.168Z,59.30
2022-11-27T04:00:40.156Z,59.26
2022-11-27T04:01:40.175Z,59.42
2022-11-27T04:02:40.239Z,59.19
2022-11-27T04:03:40.238Z,59.25
2022-11-27T04:04:40.518Z,59.03
2022-11-27T04:05:40.118Z,58.78
2022-11-27T04:06:40.107Z,59.02
2022-11-27T04:07:40.184Z,58.61
2022-11-27T04:08:40.097Z,58.55
2022-11-27T04:09:40.087Z,58.47
2022-11-27T04:10:40.079Z,58.08
2022-11-27T04:11:40.084Z,48.49
2022-11-27T04:12:40.091Z,40.96
2022-11-27T04:13:40.059Z,45.39
2022-11-27T04:14:40.451Z,43.21
2022-11-27T04:15:40.039Z,40.45
2022-11-27T04:16:40.099Z,39.74
2022-11-27T04:17:40.055Z,46.39
2022-11-27T04:18:40.097Z,44.20
2022-11-27T04:19:40.007Z,43.09
2022-11-27T04:20:39.997Z,46.77
2022-11-27T04:21:40.007Z,43.43
2022-11-27T04:22:40.067Z,43.85
2022-11-27T04:23:39.983Z,48.46
2022-11-27T04:24:40.268Z,40.60
2022-11-27T04:25:39.966Z,48.35
2022-11-27T04:26:39.955Z,43.07
2022-11-27T04:27:39.986Z,43.41
2022-11-27T04:28:39.944Z,42.59
2022-11-27T04:29:39.947Z,43.15
2022-11-27T04:30:39.934Z,45.43
2022-11-27T04:31:39.955Z,44.65
2022-11-27T04:32:39.947Z,46.41
2022-11-27T04:33:39.906Z,42.60
2022-11-27T04:34:40.290Z,42.85
2022-11-27T04:35:39.890Z,45.98
2022-11-27T04:36:39.899Z,42.19
2022-11-27T04:37:39.907Z,40.58
2022-11-27T04:38:39.876Z,40.68
2022-11-27T04:39:39.857Z,45.65
2022-11-27T04:40:39.852Z,47.24
2022-11-27T04:41:39.845Z,41.31
2022-11-27T04:42:39.844Z,42.22
2022-11-27T04:43:40.345Z,45.47
2022-11-27T04:44:40.069Z,56.10
2022-11-27T04:45:40.819Z,40.76
2022-11-27T04:46:39.886Z,43.26
2022-11-27T04:47:39.795Z,43.89
2022-11-27T04:48:39.819Z,40.28
2022-11-27T04:49:39.795Z,46.86
2022-11-27T04:50:39.854Z,40.39
2022-11-27T04:51:39.781Z,40.25
2022-11-27T04:52:39.764Z,43.16
2022-11-27T04:53:39.794Z,40.34
2022-11-27T04:54:39.958Z,47.15
2022-11-27T04:55:39.738Z,46.88
2022-11-27T04:56:39.740Z,46.76
2022-11-27T04:57:39.722Z,42.33
2022-11-27T04:58:39.750Z,43.91
2022-11-27T04:59:39.726Z,42.41
2022-11-27T05:00:39.760Z,42.32
2022-11-27T05:01:39.732Z,44.24
2022-11-27T05:02:39.782Z,44.54
2022-11-27T05:03:39.701Z,43.51
2022-11-27T05:04:39.886Z,47.03
2022-11-27T05:05:39.662Z,40.17
2022-11-27T05:06:39.760Z,43.52
2022-11-27T05:07:39.727Z,44.30
2022-11-27T05:08:39.673Z,43.71
2022-11-27T05:09:40.650Z,45.06
2022-11-27T05:10:39.630Z,48.13
2022-11-27T05:11:39.613Z,43.56
2022-11-27T05:12:39.613Z,40.32
2022-11-27T05:13:39.638Z,40.14
2022-11-27T05:14:39.898Z,44.13
2022-11-27T05:15:39.586Z,57.18
2022-11-27T05:16:39.629Z,42.79
2022-11-27T05:17:39.581Z,44.26
2022-11-27T05:18:39.601Z,44.01
2022-11-27T05:19:39.564Z,40.11
2022-11-27T05:20:39.555Z,46.67
2022-11-27T05:21:39.544Z,42.20
2022-11-27T05:22:39.608Z,39.95
2022-11-27T05:23:39.555Z,45.30
2022-11-27T05:24:39.742Z,50.93
2022-11-27T05:25:39.537Z,43.53
2022-11-27T05:26:39.511Z,45.76
2022-11-27T05:27:39.509Z,40.91
2022-11-27T05:28:39.521Z,43.98
2022-11-27T05:29:39.480Z,46.55
2022-11-27T05:30:39.478Z,45.06
2022-11-27T05:31:39.564Z,46.48
2022-11-27T05:32:39.470Z,45.16
2022-11-27T05:33:39.453Z,46.73
2022-11-27T05:34:39.831Z,43.12
2022-11-27T05:35:39.435Z,57.57
2022-11-27T05:36:39.498Z,45.21
2022-11-27T05:37:39.424Z,40.11
2022-11-27T05:38:39.483Z,43.39
2022-11-27T05:39:40.416Z,52.70
2022-11-27T05:40:39.410Z,56.43
2022-11-27T05:41:39.417Z,57.21
2022-11-27T05:42:39.397Z,59.02
2022-11-27T05:43:39.391Z,59.23
2022-11-27T05:44:39.711Z,59.76
2022-11-27T05:45:39.360Z,60.08
2022-11-27T05:46:39.443Z,60.05
2022-11-27T05:47:39.349Z,60.09
2022-11-27T05:48:39.365Z,59.98
2022-11-27T05:49:39.344Z,59.66
2022-11-27T05:50:39.330Z,59.49
2022-11-27T05:51:39.357Z,59.35
2022-11-27T05:52:39.314Z,59.41
2022-11-27T05:53:39.305Z,61.90
2022-11-27T05:54:39.571Z,58.93
2022-11-27T05:55:39.288Z,59.19
2022-11-27T05:56:39.304Z,58.91
2022-11-27T05:57:39.277Z,58.79
2022-11-27T05:58:39.269Z,44.17
2022-11-27T05:59:39.266Z,54.62
2022-11-27T06:00:39.248Z,42.42
2022-11-27T06:01:39.359Z,41.65
2022-11-27T06:02:39.419Z,45.93
2022-11-27T06:03:39.308Z,44.22
2022-11-27T06:04:39.510Z,42.41
2022-11-27T06:05:39.223Z,39.82
2022-11-27T06:06:39.230Z,44.31
2022-11-27T06:07:39.261Z,44.19
2022-11-27T06:08:39.188Z,44.93
2022-11-27T06:09:39.190Z,45.23
2022-11-27T06:10:39.248Z,51.29
2022-11-27T06:11:39.211Z,47.85
2022-11-27T06:12:39.166Z,46.51
2022-11-27T06:13:39.153Z,51.17
2022-11-27T06:14:39.433Z,40.68
2022-11-27T06:15:39.159Z,42.27
2022-11-27T06:16:39.207Z,43.20
2022-11-27T06:17:39.120Z,42.82
2022-11-27T06:18:39.119Z,45.54
2022-11-27T06:19:39.113Z,43.42
2022-11-27T06:20:43.683Z,56.44
2022-11-27T06:21:41.126Z,46.00
2022-11-27T06:22:39.082Z,40.68
2022-11-27T06:23:39.084Z,43.60
2022-11-27T06:24:39.430Z,42.39
2022-11-27T06:25:39.060Z,43.35
2022-11-27T06:26:39.123Z,43.64
2022-11-27T06:27:39.078Z,41.05
2022-11-27T06:28:39.040Z,43.84
2022-11-27T06:29:39.032Z,44.87
2022-11-27T06:31:17.258Z,45.76
2022-11-27T06:31:40.067Z,57.55
2022-11-27T06:32:39.035Z,56.63
2022-11-27T06:33:39.001Z,58.84
2022-11-27T06:34:39.343Z,59.68
2022-11-27T06:35:38.980Z,60.09
2022-11-27T06:36:38.977Z,60.73
2022-11-27T06:37:39.000Z,59.35
2022-11-27T06:38:38.967Z,58.52
2022-11-27T06:39:38.960Z,58.66
2022-11-27T06:40:38.941Z,61.29
2022-11-27T06:41:38.956Z,59.28
2022-11-27T06:42:39.036Z,58.92
2022-11-27T06:43:38.917Z,59.10
2022-11-27T06:44:39.242Z,59.38
2022-11-27T06:45:38.939Z,59.09
2022-11-27T06:46:38.907Z,60.65
2022-11-27T06:47:38.933Z,59.52
2022-11-27T06:48:38.891Z,59.62
2022-11-27T06:49:38.882Z,59.15
2022-11-27T06:50:38.876Z,59.08
2022-11-27T06:51:38.863Z,55.05
2022-11-27T06:52:40.832Z,39.93
2022-11-27T06:53:39.844Z,46.66
2022-11-27T06:54:39.181Z,40.60
2022-11-27T06:55:38.837Z,56.66
2022-11-27T06:56:38.826Z,44.10
2022-11-27T06:57:38.841Z,42.04
2022-11-27T06:58:38.883Z,41.40
2022-11-27T06:59:38.787Z,47.69
2022-11-27T07:00:39.812Z,56.97
2022-11-27T07:01:38.876Z,46.36
2022-11-27T07:02:38.876Z,41.15
2022-11-27T07:03:38.779Z,48.49
2022-11-27T07:04:39.101Z,53.71
2022-11-27T07:05:38.751Z,49.23
2022-11-27T07:06:38.743Z,44.02
2022-11-27T07:07:43.548Z,48.23
2022-11-27T07:08:40.727Z,43.77
2022-11-27T07:09:38.721Z,45.18
2022-11-27T07:10:38.715Z,46.75
2022-11-27T07:11:38.717Z,41.72
2022-11-27T07:12:38.697Z,47.70
2022-11-27T07:13:38.719Z,43.16
2022-11-27T07:14:39.147Z,47.38
2022-11-27T07:15:38.676Z,45.28
2022-11-27T07:16:38.752Z,43.26
2022-11-27T07:17:38.667Z,46.00
2022-11-27T07:18:38.682Z,47.51
2022-11-27T07:19:38.653Z,43.81
2022-11-27T07:20:38.641Z,54.80
2022-11-27T07:21:38.633Z,45.60
2022-11-27T07:22:38.626Z,43.60
2022-11-27T07:23:38.645Z,50.41
2022-11-27T07:24:38.776Z,48.02
2022-11-27T07:25:38.602Z,45.56
2022-11-27T07:26:38.604Z,45.86
2022-11-27T07:27:38.593Z,48.01
2022-11-27T07:28:38.608Z,44.78
2022-11-27T07:29:38.575Z,48.43
2022-11-27T07:30:38.639Z,57.18
2022-11-27T07:31:38.600Z,57.98
2022-11-27T07:32:38.553Z,59.23
2022-11-27T07:33:38.569Z,59.45
2022-11-27T07:34:38.778Z,59.87
2022-11-27T07:35:38.529Z,60.18
2022-11-27T07:36:38.524Z,59.93
2022-11-27T07:37:38.513Z,59.98
2022-11-27T07:38:38.532Z,59.47
2022-11-27T07:40:00.986Z,58.39
2022-11-27T07:40:40.484Z,59.32
2022-11-27T07:41:38.477Z,58.69
2022-11-27T07:42:39.353Z,57.94
2022-11-27T07:43:38.487Z,50.99
2022-11-27T07:44:38.624Z,49.85
2022-11-27T07:45:38.475Z,47.11
2022-11-27T07:46:38.508Z,46.03
2022-11-27T07:47:38.431Z,49.69
2022-11-27T07:48:38.452Z,56.41
2022-11-27T07:49:38.421Z,55.23
2022-11-27T07:50:38.407Z,44.98
2022-11-27T07:51:38.406Z,50.64
2022-11-27T07:52:42.065Z,52.82
2022-11-27T07:53:39.417Z,50.48
2022-11-27T07:54:38.792Z,45.90
2022-11-27T07:55:38.368Z,44.44
2022-11-27T07:56:38.357Z,49.48
2022-11-27T07:57:38.349Z,49.58
2022-11-27T07:58:38.371Z,49.93
2022-11-27T07:59:40.008Z,51.72
2022-11-27T08:00:38.436Z,48.03
2022-11-27T08:01:38.392Z,46.39
2022-11-27T08:02:38.381Z,46.47
2022-11-27T08:03:38.330Z,47.79
2022-11-27T08:04:38.610Z,48.22
2022-11-27T08:05:39.286Z,52.78
2022-11-27T08:06:38.281Z,53.20
2022-11-27T08:07:38.339Z,51.48
2022-11-27T08:08:38.294Z,51.58
2022-11-27T08:09:38.261Z,51.24
2022-11-27T08:10:38.253Z,52.04
2022-11-27T08:11:38.249Z,50.47
2022-11-27T08:12:38.235Z,51.89
2022-11-27T08:13:38.259Z,48.93
2022-11-27T08:14:38.501Z,53.65
2022-11-27T08:15:38.218Z,57.30
2022-11-27T08:16:38.280Z,49.76
2022-11-27T08:17:38.201Z,45.12
2022-11-27T08:18:38.275Z,53.90
2022-11-27T08:19:38.211Z,50.93
2022-11-27T08:20:38.181Z,51.21
2022-11-27T08:21:38.170Z,51.71
2022-11-27T08:22:38.166Z,50.98
2022-11-27T08:23:38.152Z,51.26
2022-11-27T08:24:38.273Z,49.45
2022-11-27T08:25:38.132Z,53.22
2022-11-27T08:26:38.129Z,52.80
2022-11-27T08:27:38.127Z,54.68
2022-11-27T08:28:38.115Z,52.78
2022-11-27T08:29:38.145Z,53.95
2022-11-27T08:30:38.117Z,46.84
2022-11-27T08:31:38.140Z,59.50
2022-11-27T08:32:38.082Z,48.76
2022-11-27T08:33:38.077Z,50.27
2022-11-27T08:34:38.304Z,54.59
2022-11-27T08:35:38.064Z,50.26
2022-11-27T08:36:38.054Z,58.99
2022-11-27T08:37:38.049Z,54.27
2022-11-27T08:38:38.036Z,48.05
2022-11-27T08:39:38.056Z,47.73
2022-11-27T08:40:38.020Z,53.20
2022-11-27T08:41:38.015Z,56.78
2022-11-27T08:42:38.004Z,53.75
2022-11-27T08:43:37.998Z,52.35
2022-11-27T08:44:38.184Z,59.30
2022-11-27T08:45:38.015Z,52.37
2022-11-27T08:46:37.978Z,48.22
2022-11-27T08:47:37.970Z,52.47
2022-11-27T08:48:37.967Z,53.60
2022-11-27T08:49:42.533Z,53.81
2022-11-27T08:50:40.016Z,52.65
2022-11-27T08:51:37.934Z,48.79
2022-11-27T08:52:37.933Z,51.75
2022-11-27T08:53:38.007Z,51.49
2022-11-27T08:54:38.314Z,51.63
2022-11-27T08:55:37.907Z,52.06
2022-11-27T08:56:37.908Z,56.55
2022-11-27T08:57:37.910Z,57.39
2022-11-27T08:58:37.896Z,59.72
2022-11-27T08:59:37.912Z,60.01
2022-11-27T09:00:37.945Z,60.92
2022-11-27T09:01:37.957Z,60.94
2022-11-27T09:02:37.862Z,59.92
2022-11-27T09:03:37.920Z,58.06
2022-11-27T09:04:37.877Z,57.68
2022-11-27T09:05:37.844Z,57.98
2022-11-27T09:06:37.906Z,58.60
2022-11-27T09:07:37.877Z,59.24
2022-11-27T09:08:37.815Z,60.22
2022-11-27T09:09:37.836Z,59.56
2022-11-27T09:10:37.790Z,59.69
2022-11-27T09:11:38.796Z,60.41
2022-11-27T09:12:43.026Z,59.55
2022-11-27T09:13:39.776Z,58.74
2022-11-27T09:14:38.098Z,59.49
2022-11-27T09:15:37.766Z,56.52
2022-11-27T09:16:37.788Z,52.63
2022-11-27T09:17:37.744Z,47.70
2022-11-27T09:18:37.734Z,52.60
2022-11-27T09:19:37.757Z,55.72
2022-11-27T09:20:37.717Z,54.08
2022-11-27T09:21:37.714Z,56.15
2022-11-27T09:22:37.783Z,51.24
2022-11-27T09:23:37.711Z,49.53
2022-11-27T09:24:37.768Z,52.87
2022-11-27T09:25:37.689Z,54.52
2022-11-27T09:26:37.676Z,50.79
2022-11-27T09:27:37.669Z,51.26
2022-11-27T09:28:37.660Z,50.71
2022-11-27T09:29:37.689Z,51.62
2022-11-27T09:30:37.652Z,52.95
2022-11-27T09:31:37.686Z,48.22
2022-11-27T09:32:37.634Z,59.04
2022-11-27T09:33:37.632Z,53.15
2022-11-27T09:34:37.947Z,52.42
2022-11-27T09:35:37.735Z,50.13
2022-11-27T09:36:37.602Z,53.13
2022-11-27T09:37:37.618Z,55.56
2022-11-27T09:38:37.655Z,47.99
2022-11-27T09:39:37.572Z,54.04
2022-11-27T09:40:38.593Z,50.90
2022-11-27T09:41:37.562Z,55.80
2022-11-27T09:42:37.557Z,51.99
2022-11-27T09:43:37.546Z,51.75
2022-11-27T09:44:37.648Z,52.66
2022-11-27T09:45:37.592Z,56.20
2022-11-27T09:46:37.525Z,56.05
2022-11-27T09:47:41.412Z,46.86
2022-11-27T09:48:38.511Z,48.06
2022-11-27T09:49:37.499Z,53.27
2022-11-27T09:50:37.515Z,54.08
2022-11-27T09:51:37.591Z,50.08
2022-11-27T09:52:37.479Z,53.88
2022-11-27T09:53:37.476Z,53.68
2022-11-27T09:54:37.580Z,51.09
2022-11-27T09:55:37.490Z,60.42
2022-11-27T09:56:37.448Z,52.34
2022-11-27T09:57:37.438Z,51.31
2022-11-27T09:58:37.430Z,58.14
2022-11-27T09:59:37.422Z,53.99
2022-11-27T10:00:37.444Z,51.65
2022-11-27T10:01:45.199Z,52.90
2022-11-27T10:02:39.648Z,55.20
2022-11-27T10:03:37.390Z,50.82
2022-11-27T10:04:57.964Z,53.43
2022-11-27T10:05:39.401Z,55.12
2022-11-27T10:06:37.365Z,54.94
2022-11-27T10:07:37.435Z,49.51
2022-11-27T10:08:37.351Z,51.92
2022-11-27T10:09:37.341Z,53.58
2022-11-27T10:10:37.439Z,51.96
2022-11-27T10:11:37.322Z,52.00
2022-11-27T10:12:37.324Z,53.28
2022-11-27T10:13:37.309Z,50.02
2022-11-27T10:14:37.321Z,49.00
2022-11-27T10:15:37.318Z,53.25
2022-11-27T10:16:41.386Z,53.19
2022-11-27T10:17:39.354Z,51.96
2022-11-27T10:18:37.275Z,54.30
2022-11-27T10:19:37.261Z,59.98
2022-11-27T10:20:37.288Z,50.94
2022-11-27T10:21:37.250Z,51.45
2022-11-27T10:22:37.243Z,56.05
2022-11-27T10:23:37.239Z,51.35
2022-11-27T10:24:37.255Z,51.54
2022-11-27T10:25:37.218Z,51.47
2022-11-27T10:26:37.305Z,50.40
2022-11-27T10:27:37.198Z,50.45
2022-11-27T10:28:37.188Z,52.09
2022-11-27T10:29:37.188Z,49.78
2022-11-27T10:30:37.181Z,55.53
2022-11-27T10:31:37.295Z,50.20
2022-11-27T10:33:39.164Z,54.47
2022-11-27T10:34:37.166Z,52.29
2022-11-27T10:35:37.159Z,53.60
2022-11-27T10:36:37.166Z,52.80
2022-11-27T10:37:37.124Z,52.35
2022-11-27T10:38:37.120Z,53.79
2022-11-27T10:39:37.112Z,51.22
2022-11-27T10:40:37.102Z,51.91
2022-11-27T10:41:52.404Z,52.53
2022-11-27T10:42:39.152Z,55.95
2022-11-27T10:43:38.082Z,50.05
2022-11-27T10:44:37.074Z,61.63
2022-11-27T10:45:37.103Z,49.15
2022-11-27T10:46:37.079Z,47.85
2022-11-27T10:47:37.046Z,54.82
2022-11-27T10:48:37.037Z,53.62
2022-11-27T10:49:37.032Z,52.73
2022-11-27T10:50:37.030Z,53.51
2022-11-27T10:51:37.051Z,53.39
2022-11-27T10:52:37.008Z,52.11
2022-11-27T10:53:37.006Z,56.35
2022-11-27T10:54:36.996Z,53.78
2022-11-27T10:55:36.997Z,49.71
2022-11-27T10:56:37.007Z,52.67
2022-11-27T10:57:36.974Z,48.44
2022-11-27T10:58:37.030Z,55.68
2022-11-27T10:59:36.951Z,60.66
2022-11-27T11:00:36.950Z,54.04
2022-11-27T11:01:37.016Z,54.00
2022-11-27T11:02:36.991Z,52.88
2022-11-27T11:03:36.927Z,51.85
2022-11-27T11:04:38.637Z,54.26
2022-11-27T11:06:11.657Z,50.49
2022-11-27T11:06:38.925Z,51.04
2022-11-27T11:07:36.929Z,52.64
2022-11-27T11:08:36.884Z,50.63
2022-11-27T11:09:36.877Z,58.31
2022-11-27T11:10:36.865Z,56.40
2022-11-27T11:11:36.890Z,49.66
2022-11-27T11:12:36.865Z,49.53
2022-11-27T11:13:36.853Z,56.03
2022-11-27T11:14:36.912Z,50.49
2022-11-27T11:15:36.831Z,52.97
2022-11-27T11:16:36.886Z,54.60
2022-11-27T11:17:36.821Z,55.20
2022-11-27T11:18:36.823Z,48.27
2022-11-27T11:19:36.800Z,51.30
2022-11-27T11:20:36.795Z,57.77
2022-11-27T11:21:36.817Z,49.44
2022-11-27T11:22:36.783Z,51.57
2022-11-27T11:23:36.774Z,54.99
2022-11-27T11:24:36.767Z,50.91
2022-11-27T11:25:36.754Z,52.19
2022-11-27T11:26:36.778Z,55.59
2022-11-27T11:27:36.738Z,62.64
2022-11-27T11:28:39.695Z,51.78
2022-11-27T11:29:37.729Z,53.18
2022-11-27T11:30:36.791Z,53.92
2022-11-27T11:31:36.758Z,49.67
2022-11-27T11:32:36.702Z,54.13
2022-11-27T11:33:36.689Z,56.88
2022-11-27T11:34:36.688Z,50.83
2022-11-27T11:35:36.687Z,53.56
2022-11-27T11:36:36.671Z,54.91
2022-11-27T11:37:36.688Z,55.43
2022-11-27T11:38:36.651Z,54.61
2022-11-27T11:39:36.642Z,54.13
2022-11-27T11:40:36.647Z,54.65
2022-11-27T11:41:36.631Z,49.67
2022-11-27T11:42:36.652Z,52.99
2022-11-27T11:43:36.618Z,54.78
2022-11-27T11:44:36.614Z,53.66
2022-11-27T11:45:36.677Z,48.37
2022-11-27T11:46:36.857Z,56.29
2022-11-27T11:47:36.615Z,48.18
2022-11-27T11:48:36.579Z,51.86
2022-11-27T11:49:36.572Z,53.01
2022-11-27T11:50:36.568Z,54.00
2022-11-27T11:51:36.555Z,51.28
2022-11-27T11:52:36.579Z,53.72
2022-11-27T11:53:36.545Z,54.98
2022-11-27T11:54:36.528Z,56.89
2022-11-27T11:55:36.523Z,54.90
2022-11-27T11:56:36.516Z,54.14
2022-11-27T11:57:36.537Z,54.96
2022-11-27T11:58:36.504Z,53.08
2022-11-27T11:59:38.576Z,53.05
2022-11-27T12:00:53.086Z,58.19
2022-11-27T12:01:38.500Z,48.09
2022-11-27T12:02:36.641Z,53.36
2022-11-27T12:03:36.470Z,56.22
2022-11-27T12:04:36.520Z,51.69
2022-11-27T12:05:36.445Z,49.88
2022-11-27T12:06:36.434Z,52.03
2022-11-27T12:07:36.526Z,51.54
2022-11-27T12:08:36.422Z,53.87
2022-11-27T12:09:36.437Z,52.88
2022-11-27T12:10:36.418Z,54.48
2022-11-27T12:11:36.403Z,48.92
2022-11-27T12:12:36.425Z,54.47
2022-11-27T12:13:36.388Z,56.19
2022-11-27T12:14:36.376Z,58.30
2022-11-27T12:15:36.374Z,49.92
2022-11-27T12:16:36.403Z,51.26
2022-11-27T12:17:36.354Z,55.88
2022-11-27T12:18:36.589Z,54.09
2022-11-27T12:19:36.341Z,55.27
2022-11-27T12:20:36.336Z,56.22
2022-11-27T12:21:36.325Z,44.47
2022-11-27T12:22:36.315Z,54.01
2022-11-27T12:23:36.523Z,61.95
2022-11-27T12:24:36.298Z,55.35
2022-11-27T12:25:36.293Z,53.45
2022-11-27T12:26:36.291Z,55.85
2022-11-27T12:27:36.287Z,49.83
2022-11-27T12:28:36.526Z,53.02
2022-11-27T12:29:36.272Z,57.24
2022-11-27T12:30:36.252Z,54.20
2022-11-27T12:32:10.204Z,54.45
2022-11-27T12:32:36.243Z,52.07
2022-11-27T12:33:36.251Z,56.30
2022-11-27T12:34:36.324Z,54.50
2022-11-27T12:35:36.234Z,57.10
2022-11-27T12:36:36.252Z,55.39
2022-11-27T12:37:36.221Z,52.05
2022-11-27T12:38:36.526Z,55.54
2022-11-27T12:39:36.192Z,56.32
2022-11-27T12:40:36.184Z,57.11
2022-11-27T12:41:36.160Z,54.21
2022-11-27T12:42:36.159Z,57.92
2022-11-27T12:43:36.175Z,52.10
2022-11-27T12:44:36.144Z,55.64
2022-11-27T12:45:36.154Z,57.81
2022-11-27T12:46:36.114Z,52.43
2022-11-27T12:47:38.972Z,54.10
2022-11-27T12:48:37.132Z,55.29
2022-11-27T12:49:36.099Z,55.58
2022-11-27T12:50:36.158Z,55.20
2022-11-27T12:51:36.082Z,56.95
2022-11-27T12:52:36.074Z,56.87
2022-11-27T12:53:36.083Z,51.37